Time;durP1;ratioP1;P1;durP2;ratioP2;P2;SDS_P1;SDS_P2;PMS_P1;PMS_P2;Temp;Humidity;BMP_temperature;BMP_pressure;BME280_temperature;BME280_humidity;BME280_pressure;Samples;Min_cycle;Max_cycle;Signal;HPM_P1;HPM_P2
2023/12/19 00:03:21;;;;;;;49.03;30.23;;;;;;;;;;9875290;29;20049;-71
2023/12/19 00:08:17;;;;;;;58.00;32.67;;;;;;;;;;9853954;29;20128;-69
2023/12/19 00:13:14;;;;;;;52.75;30.90;;;;;;;;;;9866048;29;20072;-71
2023/12/19 00:18:10;;;;;;;55.80;31.13;;;;;;;;;;9878225;29;20053;-70
2023/12/19 00:23:07;;;;;;;49.15;28.98;;;;;;;;;;9868491;29;20053;-70
2023/12/19 00:28:03;;;;;;;50.72;30.73;;;;;;;;;;9862537;29;20042;-69
2023/12/19 00:32:59;;;;;;;50.92;29.75;;;;;;;;;;9861210;29;20494;-70
2023/12/19 00:37:56;;;;;;;47.83;29.65;;;;;;;;;;9869920;29;20058;-69
2023/12/19 00:42:52;;;;;;;45.97;28.30;;;;;;;;;;9867849;29;20052;-69
2023/12/19 00:47:48;;;;;;;45.28;28.70;;;;;;;;;;9868118;29;20058;-69
2023/12/19 00:52:45;;;;;;;45.97;28.98;;;;;;;;;;9865997;29;20065;-69
2023/12/19 00:57:41;;;;;;;39.45;25.95;;;;;;;;;;9870810;29;20058;-71
2023/12/19 01:02:37;;;;;;;41.35;25.40;;;;;;;;;;9859475;29;20053;-68
2023/12/19 01:07:34;;;;;;;45.63;27.52;;;;;;;;;;9863427;29;20069;-69
2023/12/19 01:12:30;;;;;;;34.35;22.60;;;;;;;;;;9868831;29;20049;-69
2023/12/19 01:17:26;;;;;;;38.50;24.35;;;;;;;;;;9873116;29;20136;-69
2023/12/19 01:22:23;;;;;;;38.38;23.45;;;;;;;;;;9865803;29;20107;-68
2023/12/19 01:27:19;;;;;;;40.20;25.85;;;;;;;;;;9855655;29;20073;-66
2023/12/19 01:32:16;;;;;;;34.78;21.95;;;;;;;;;;9880570;29;20076;-70
2023/12/19 01:37:12;;;;;;;31.85;20.83;;;;;;;;;;9868955;29;20161;-68
2023/12/19 01:42:09;;;;;;;39.30;23.50;;;;;;;;;;9893288;29;20513;-69
2023/12/19 01:47:06;;;;;;;39.78;25.73;;;;;;;;;;9870791;29;20586;-68
2023/12/19 01:52:02;;;;;;;31.85;22.70;;;;;;;;;;9870249;29;20080;-68
2023/12/19 01:56:58;;;;;;;38.50;22.55;;;;;;;;;;9883532;29;20053;-69
2023/12/19 02:01:55;;;;;;;35.25;22.33;;;;;;;;;;9888015;29;20399;-68
2023/12/19 02:06:51;;;;;;;33.25;22.13;;;;;;;;;;9876788;29;20122;-68
2023/12/19 02:11:48;;;;;;;38.20;22.75;;;;;;;;;;9870908;29;20053;-68
2023/12/19 02:16:44;;;;;;;31.13;21.55;;;;;;;;;;9883444;29;20060;-68
2023/12/19 02:21:40;;;;;;;31.30;20.40;;;;;;;;;;9886836;29;20415;-70
2023/12/19 02:26:38;;;;;;;30.45;20.73;;;;;;;;;;9868380;29;20045;-69
2023/12/19 02:31:34;;;;;;;32.28;21.15;;;;;;;;;;9870028;29;20046;-69
2023/12/19 02:36:30;;;;;;;27.25;19.80;;;;;;;;;;9873188;29;20133;-69
2023/12/19 02:41:27;;;;;;;27.73;19.92;;;;;;;;;;9862982;29;20062;-68
2023/12/19 02:46:23;;;;;;;30.33;20.23;;;;;;;;;;9873866;29;20090;-68
2023/12/19 02:51:20;;;;;;;27.13;19.15;;;;;;;;;;9866820;29;20514;-67
2023/12/19 02:56:16;;;;;;;30.00;20.02;;;;;;;;;;9878699;29;20065;-68
2023/12/19 03:01:13;;;;;;;35.40;21.25;;;;;;;;;;9872119;29;20105;-68
2023/12/19 03:06:09;;;;;;;29.73;19.63;;;;;;;;;;9881204;29;20110;-69
2023/12/19 03:11:07;;;;;;;37.95;21.75;;;;;;;;;;9871048;29;20254;-67
2023/12/19 03:16:03;;;;;;;36.92;23.20;;;;;;;;;;9865673;29;20526;-67
2023/12/19 03:21:00;;;;;;;29.75;20.20;;;;;;;;;;9869851;29;20105;-68
2023/12/19 03:25:56;;;;;;;34.38;20.40;;;;;;;;;;9868488;29;20561;-67
2023/12/19 03:30:52;;;;;;;29.65;19.40;;;;;;;;;;9866154;29;20045;-67
2023/12/19 03:35:49;;;;;;;31.48;19.45;;;;;;;;;;9868527;29;20061;-68
2023/12/19 03:40:45;;;;;;;30.35;19.13;;;;;;;;;;9873525;29;20514;-67
2023/12/19 03:45:41;;;;;;;27.95;18.98;;;;;;;;;;9877498;29;20142;-68
2023/12/19 03:50:38;;;;;;;32.10;17.88;;;;;;;;;;9865458;29;20137;-69
2023/12/19 03:55:34;;;;;;;27.85;17.02;;;;;;;;;;9866044;29;20697;-68
2023/12/19 04:00:30;;;;;;;24.60;17.80;;;;;;;;;;9869237;29;20112;-72
2023/12/19 04:05:27;;;;;;;22.48;16.58;;;;;;;;;;9866033;29;20686;-69
2023/12/19 04:10:23;;;;;;;18.75;13.48;;;;;;;;;;9868859;29;20064;-68
2023/12/19 04:15:20;;;;;;;21.38;15.48;;;;;;;;;;9857411;29;20092;-68
2023/12/19 04:20:16;;;;;;;19.75;13.77;;;;;;;;;;9868208;29;20078;-67
2023/12/19 04:25:12;;;;;;;21.40;15.75;;;;;;;;;;9874268;29;20054;-67
2023/12/19 04:30:10;;;;;;;18.60;13.57;;;;;;;;;;9879650;29;20065;-68
2023/12/19 04:35:06;;;;;;;21.98;14.73;;;;;;;;;;9885851;29;20052;-71
2023/12/19 04:40:03;;;;;;;18.27;14.25;;;;;;;;;;9886818;29;20045;-71
2023/12/19 04:45:00;;;;;;;19.92;14.30;;;;;;;;;;9876206;29;20160;-70
2023/12/19 04:49:56;;;;;;;18.65;14.30;;;;;;;;;;9870104;29;20076;-71
2023/12/19 04:54:53;;;;;;;16.65;13.68;;;;;;;;;;9845713;29;20073;-71
2023/12/19 04:59:49;;;;;;;19.58;14.73;;;;;;;;;;9864799;29;20053;-72
2023/12/19 05:04:46;;;;;;;19.75;14.45;;;;;;;;;;9867311;29;20053;-71
2023/12/19 05:09:42;;;;;;;15.63;12.15;;;;;;;;;;9873933;29;20054;-71
2023/12/19 05:14:38;;;;;;;18.38;13.95;;;;;;;;;;9860223;29;20093;-71
2023/12/19 05:19:34;;;;;;;19.23;12.40;;;;;;;;;;9859924;29;20613;-75
2023/12/19 05:24:42;;;;;;;20.13;14.18;;;;;;;;;;9865276;29;20057;-73
2023/12/19 05:29:39;;;;;;;18.10;14.63;;;;;;;;;;9878550;29;20092;-73
2023/12/19 05:34:36;;;;;;;18.50;15.00;;;;;;;;;;9873743;29;20045;-73
2023/12/19 05:39:32;;;;;;;18.90;13.82;;;;;;;;;;9883565;29;20113;-72
2023/12/19 05:44:28;;;;;;;17.27;11.75;;;;;;;;;;9870172;29;20568;-73
2023/12/19 05:49:25;;;;;;;13.35;9.52;;;;;;;;;;9878944;29;20081;-73
2023/12/19 05:54:22;;;;;;;15.25;11.02;;;;;;;;;;9874102;29;20049;-73
2023/12/19 05:59:18;;;;;;;14.45;10.63;;;;;;;;;;9859585;29;20057;-74
2023/12/19 06:05:07;;;;;;;;;;;;;;;;;;;;;
2023/12/19 06:11:13;;;;;;;11.65;9.07;;;;;;;;;;9827423;29;20073;-74
2023/12/19 06:22:54;;;;;;;9.50;8.27;;;;;;;;;;9683884;29;20039;-73
2023/12/19 06:27:51;;;;;;;9.18;7.80;;;;;;;;;;9806514;29;20058;-74
2023/12/19 06:32:48;;;;;;;9.13;7.13;;;;;;;;;;9825333;29;20054;-73
2023/12/19 06:37:44;;;;;;;6.82;6.10;;;;;;;;;;9831319;29;20046;-72
2023/12/19 06:42:41;;;;;;;7.95;7.13;;;;;;;;;;9896219;23;20172;-72
2023/12/19 06:47:38;;;;;;;7.25;5.95;;;;;;;;;;9892973;29;20064;-73
2023/12/19 06:52:34;;;;;;;7.25;6.55;;;;;;;;;;9884166;29;20049;-71
2023/12/19 06:57:30;;;;;;;6.88;6.00;;;;;;;;;;9865198;29;20057;-72
2023/12/19 07:02:27;;;;;;;8.27;6.00;;;;;;;;;;9870633;29;20403;-73
2023/12/19 07:07:24;;;;;;;6.05;5.20;;;;;;;;;;9872961;29;20057;-72
2023/12/19 07:12:20;;;;;;;8.75;5.80;;;;;;;;;;9872226;29;20057;-72
2023/12/19 07:17:17;;;;;;;6.53;5.68;;;;;;;;;;9868661;29;20098;-72
2023/12/19 07:22:13;;;;;;;5.93;5.15;;;;;;;;;;9858362;29;20526;-72
2023/12/19 07:27:09;;;;;;;6.40;5.80;;;;;;;;;;9873660;29;20050;-73
2023/12/19 07:32:06;;;;;;;6.70;6.10;;;;;;;;;;9863502;29;20052;-73
2023/12/19 07:37:02;;;;;;;6.90;5.57;;;;;;;;;;9866897;29;20574;-73
2023/12/19 07:41:59;;;;;;;5.13;4.63;;;;;;;;;;9863674;29;20054;-73
2023/12/19 07:46:55;;;;;;;7.28;5.70;;;;;;;;;;9871250;29;20046;-72
2023/12/19 07:51:53;;;;;;;6.63;6.03;;;;;;;;;;9865378;29;20100;-72
2023/12/19 07:56:50;;;;;;;8.88;5.60;;;;;;;;;;9873039;29;20056;-73
2023/12/19 08:01:47;;;;;;;7.95;5.85;;;;;;;;;;9875447;29;20056;-72
2023/12/19 08:06:43;;;;;;;6.45;5.05;;;;;;;;;;9871831;29;20076;-73
2023/12/19 08:11:40;;;;;;;7.22;5.40;;;;;;;;;;9869281;29;20114;-72
2023/12/19 08:16:36;;;;;;;5.20;4.40;;;;;;;;;;9882373;29;20410;-72
2023/12/19 08:21:32;;;;;;;5.25;4.57;;;;;;;;;;9868727;29;20065;-72
2023/12/19 08:26:29;;;;;;;4.57;3.97;;;;;;;;;;9872957;29;20050;-73
2023/12/19 08:31:25;;;;;;;4.90;3.90;;;;;;;;;;9868947;29;20102;-74
2023/12/19 08:36:22;;;;;;;4.45;4.05;;;;;;;;;;9855699;29;20526;-75
2023/12/19 08:41:30;;;;;;;7.40;4.35;;;;;;;;;;9868683;29;20066;-75
2023/12/19 08:46:26;;;;;;;5.70;4.80;;;;;;;;;;9873936;29;20395;-75
2023/12/19 08:51:23;;;;;;;4.50;3.85;;;;;;;;;;9874488;29;20049;-74
2023/12/19 08:56:20;;;;;;;3.97;3.63;;;;;;;;;;9873229;29;20429;-75
2023/12/19 09:01:17;;;;;;;4.22;3.83;;;;;;;;;;9869550;29;20402;-75
2023/12/19 09:06:14;;;;;;;5.00;4.05;;;;;;;;;;9874351;29;20426;-75
2023/12/19 09:11:10;;;;;;;4.63;3.67;;;;;;;;;;9859367;29;20062;-75
2023/12/19 09:16:06;;;;;;;5.13;3.85;;;;;;;;;;9861637;29;20053;-75
2023/12/19 09:21:04;;;;;;;5.50;4.00;;;;;;;;;;9860253;29;20046;-74
2023/12/19 09:26:00;;;;;;;4.53;3.88;;;;;;;;;;9879781;29;20057;-74
2023/12/19 09:31:07;;;;;;;4.60;3.92;;;;;;;;;;9876868;23;20110;-74
2023/12/19 09:36:24;;;;;;;5.85;4.43;;;;;;;;;;9858815;29;20057;-73
2023/12/19 09:41:29;;;;;;;3.90;3.50;;;;;;;;;;9846171;29;20103;-73
2023/12/19 09:46:53;;;;;;;4.10;3.70;;;;;;;;;;9818269;29;20058;-73
2023/12/19 09:51:59;;;;;;;4.13;3.80;;;;;;;;;;9827098;29;20076;-73
2023/12/19 09:56:58;;;;;;;4.97;3.80;;;;;;;;;;9831215;29;20430;-72
2023/12/19 10:01:54;;;;;;;4.95;3.90;;;;;;;;;;9824659;29;20061;-73
2023/12/19 10:06:58;;;;;;;4.32;3.92;;;;;;;;;;9826601;29;20475;-75
2023/12/19 10:12:04;;;;;;;4.88;4.10;;;;;;;;;;9836330;29;20387;-75
2023/12/19 10:17:04;;;;;;;4.40;4.00;;;;;;;;;;9829953;29;20538;-72
2023/12/19 10:22:10;;;;;;;4.90;4.50;;;;;;;;;;9826078;29;20061;-75
2023/12/19 10:27:07;;;;;;;4.40;4.00;;;;;;;;;;9817422;29;20065;-72
2023/12/19 10:32:14;;;;;;;5.10;4.50;;;;;;;;;;9835515;29;20050;-72
2023/12/19 10:37:11;;;;;;;4.97;4.47;;;;;;;;;;9825170;29;20072;-72
2023/12/19 10:42:09;;;;;;;5.15;4.70;;;;;;;;;;9840176;29;20662;-75
2023/12/19 10:47:07;;;;;;;5.15;4.65;;;;;;;;;;9813368;29;20057;-74
2023/12/19 10:52:08;;;;;;;5.63;5.00;;;;;;;;;;9841069;29;20061;-73
2023/12/19 10:57:16;;;;;;;4.80;4.40;;;;;;;;;;9818495;29;20126;-74
2023/12/19 11:02:13;;;;;;;4.72;4.30;;;;;;;;;;9831924;29;20056;-75
2023/12/19 11:07:12;;;;;;;5.00;4.50;;;;;;;;;;9848396;29;20050;-73
2023/12/19 11:12:09;;;;;;;5.43;4.93;;;;;;;;;;9823922;29;20083;-75
2023/12/19 11:17:09;;;;;;;5.97;5.43;;;;;;;;;;9841283;29;20080;-75
2023/12/19 11:22:12;;;;;;;6.40;5.80;;;;;;;;;;9817187;29;20397;-73
2023/12/19 11:27:11;;;;;;;6.70;6.10;;;;;;;;;;9839809;29;20081;-74
2023/12/19 11:32:26;;;;;;;6.75;6.15;;;;;;;;;;9838086;29;20062;-74
2023/12/19 11:37:22;;;;;;;7.22;6.53;;;;;;;;;;9828142;29;20145;-74
2023/12/19 11:42:37;;;;;;;9.88;7.28;;;;;;;;;;9825126;29;20776;-75
2023/12/19 11:47:33;;;;;;;8.10;7.40;;;;;;;;;;9841262;29;20124;-74
2023/12/19 11:52:36;;;;;;;7.80;7.10;;;;;;;;;;9823648;29;20426;-75
2023/12/19 11:57:33;;;;;;;8.23;7.43;;;;;;;;;;9839168;29;20114;-76
2023/12/19 12:02:36;;;;;;;9.25;8.30;;;;;;;;;;9824845;29;20058;-74
2023/12/19 12:07:32;;;;;;;9.68;8.77;;;;;;;;;;9840862;29;20499;-74
2023/12/19 12:12:35;;;;;;;9.10;8.27;;;;;;;;;;9834354;29;20442;-75
2023/12/19 12:17:33;;;;;;;12.07;9.50;;;;;;;;;;9832616;29;20062;-74
2023/12/19 12:22:30;;;;;;;11.15;10.05;;;;;;;;;;9829168;29;20137;-75
2023/12/19 12:27:30;;;;;;;10.80;9.70;;;;;;;;;;9819029;29;20203;-74
2023/12/19 12:32:27;;;;;;;10.77;9.68;;;;;;;;;;9835443;29;20089;-75
2023/12/19 12:37:23;;;;;;;10.38;9.38;;;;;;;;;;9820270;29;20431;-74
2023/12/19 12:42:23;;;;;;;10.35;9.07;;;;;;;;;;9830824;29;20053;-75
2023/12/19 12:47:23;;;;;;;12.00;10.38;;;;;;;;;;9842961;29;20155;-75
2023/12/19 12:52:19;;;;;;;9.85;8.90;;;;;;;;;;9838506;29;20862;-74
2023/12/19 12:57:15;;;;;;;11.68;10.57;;;;;;;;;;9829594;29;20057;-74
2023/12/19 13:02:12;;;;;;;10.52;9.50;;;;;;;;;;9835484;29;20066;-75
2023/12/19 13:07:09;;;;;;;13.13;11.07;;;;;;;;;;9834888;29;20061;-75
2023/12/19 13:12:05;;;;;;;10.68;9.75;;;;;;;;;;9825556;29;20422;-74
2023/12/19 13:17:04;;;;;;;11.65;10.55;;;;;;;;;;9826479;29;20054;-75
2023/12/19 13:22:03;;;;;;;10.73;9.63;;;;;;;;;;9820768;29;20046;-74
2023/12/19 13:27:00;;;;;;;10.07;8.93;;;;;;;;;;9830205;29;20078;-74
2023/12/19 13:31:57;;;;;;;9.43;8.50;;;;;;;;;;9818199;29;20056;-74
2023/12/19 13:36:54;;;;;;;8.48;7.68;;;;;;;;;;9830855;29;20050;-74
2023/12/19 13:41:52;;;;;;;7.88;7.13;;;;;;;;;;9838025;29;20080;-75
2023/12/19 13:46:50;;;;;;;7.05;6.35;;;;;;;;;;9845158;29;20058;-75
2023/12/19 13:51:47;;;;;;;7.32;6.20;;;;;;;;;;9831678;29;20052;-75
2023/12/19 13:56:43;;;;;;;6.22;5.63;;;;;;;;;;9847652;29;20054;-75
2023/12/19 14:02:28;;;;;;;6.45;5.85;;;;;;;;;;9889539;23;20049;-75
2023/12/19 14:08:02;;;;;;;6.60;5.57;;;;;;;;;;9868728;29;20054;-75
2023/12/19 14:13:03;;;;;;;7.03;6.05;;;;;;;;;;9877940;29;20086;-75
2023/12/19 14:17:59;;;;;;;6.20;5.53;;;;;;;;;;9874696;29;20066;-75
2023/12/19 14:22:56;;;;;;;6.75;5.60;;;;;;;;;;9884515;29;20057;-75
2023/12/19 14:27:52;;;;;;;6.47;5.88;;;;;;;;;;9877256;29;20133;-76
2023/12/19 14:32:49;;;;;;;7.63;6.00;;;;;;;;;;9880839;29;20057;-75
2023/12/19 14:37:45;;;;;;;6.53;5.93;;;;;;;;;;9873657;29;20403;-75
2023/12/19 14:42:42;;;;;;;7.13;5.82;;;;;;;;;;9876908;29;20068;-75
2023/12/19 14:47:39;;;;;;;6.80;6.20;;;;;;;;;;9885493;29;20061;-75
2023/12/19 14:52:35;;;;;;;6.10;5.50;;;;;;;;;;9873813;29;20049;-75
2023/12/19 14:57:32;;;;;;;7.15;6.55;;;;;;;;;;9881513;29;20057;-75
2023/12/19 15:02:29;;;;;;;7.45;6.75;;;;;;;;;;9882698;29;20057;-75
2023/12/19 15:07:25;;;;;;;8.13;7.28;;;;;;;;;;9879504;29;20053;-76
2023/12/19 15:12:21;;;;;;;7.18;6.50;;;;;;;;;;9877930;29;20483;-75
2023/12/19 15:17:18;;;;;;;8.15;7.35;;;;;;;;;;9881916;29;20112;-75
2023/12/19 15:22:15;;;;;;;7.95;7.13;;;;;;;;;;9877243;29;20089;-75
2023/12/19 15:27:12;;;;;;;8.73;7.82;;;;;;;;;;9877162;29;20137;-75
2023/12/19 15:32:08;;;;;;;9.13;8.20;;;;;;;;;;9878670;29;20077;-76
2023/12/19 15:37:05;;;;;;;11.80;8.60;;;;;;;;;;9870122;29;20215;-75
2023/12/19 15:42:01;;;;;;;9.57;8.57;;;;;;;;;;9874493;29;20065;-75
2023/12/19 15:46:58;;;;;;;12.10;10.32;;;;;;;;;;9874915;29;20085;-74
2023/12/19 15:51:54;;;;;;;9.90;9.00;;;;;;;;;;9876196;29;20046;-76
2023/12/19 15:56:50;;;;;;;11.45;10.05;;;;;;;;;;9875016;29;20091;-77
2023/12/19 16:01:48;;;;;;;11.05;9.85;;;;;;;;;;9876139;29;20054;-76
2023/12/19 16:06:44;;;;;;;11.82;10.55;;;;;;;;;;9877497;29;20132;-77
2023/12/19 16:12:21;;;;;;;11.02;9.82;;;;;;;;;;9868274;23;20094;-75
2023/12/19 16:23:40;;;;;;;11.65;10.45;;;;;;;;;;9809727;29;20055;-75
2023/12/19 16:29:01;;;;;;;12.45;11.02;;;;;;;;;;9832163;29;20146;-75
2023/12/19 16:33:58;;;;;;;12.88;11.40;;;;;;;;;;9823710;29;20049;-75
2023/12/19 16:38:55;;;;;;;12.70;11.27;;;;;;;;;;9829608;29;20066;-74
2023/12/19 16:43:52;;;;;;;16.08;11.48;;;;;;;;;;9836962;29;20081;-75
2023/12/19 16:48:48;;;;;;;15.13;11.52;;;;;;;;;;9827823;29;20054;-76
2023/12/19 16:53:45;;;;;;;15.52;12.23;;;;;;;;;;9821968;29;20054;-76
2023/12/19 16:58:42;;;;;;;15.77;12.40;;;;;;;;;;9841684;29;20131;-74
2023/12/19 17:03:41;;;;;;;15.02;11.85;;;;;;;;;;9830072;29;20042;-75
2023/12/19 17:08:37;;;;;;;14.60;12.45;;;;;;;;;;9831793;29;20610;-75
2023/12/19 17:13:35;;;;;;;14.45;11.48;;;;;;;;;;9838918;29;20082;-75
2023/12/19 17:18:31;;;;;;;16.10;11.90;;;;;;;;;;9836028;29;20122;-74
2023/12/19 17:23:28;;;;;;;14.80;10.93;;;;;;;;;;9842911;29;20073;-74
2023/12/19 17:28:38;;;;;;;15.07;12.05;;;;;;;;;;9843531;29;20045;-75
2023/12/19 17:33:34;;;;;;;15.15;12.23;;;;;;;;;;9849591;29;20077;-75
2023/12/19 17:38:30;;;;;;;14.75;11.40;;;;;;;;;;9843898;29;20412;-75
2023/12/19 17:43:27;;;;;;;14.63;11.90;;;;;;;;;;9854582;29;20491;-76
2023/12/19 17:48:23;;;;;;;14.27;11.23;;;;;;;;;;9852271;29;20053;-75
2023/12/19 17:53:19;;;;;;;13.45;10.98;;;;;;;;;;9853131;29;20054;-75
2023/12/19 17:58:16;;;;;;;14.30;11.57;;;;;;;;;;9851366;29;20050;-76
2023/12/19 18:03:13;;;;;;;14.63;11.50;;;;;;;;;;9819680;29;20058;-75
2023/12/19 18:08:09;;;;;;;16.33;12.48;;;;;;;;;;9845617;29;20162;-76
2023/12/19 18:13:32;;;;;;;18.63;13.13;;;;;;;;;;9894337;23;20052;-74
2023/12/19 18:43:44;;;;;;;;;;;;;;;;;;;;;
2023/12/19 18:48:54;;;;;;;16.08;11.90;;;;;;;;;;9634295;30;20055;-74
2023/12/19 19:15:53;;;;;;;9.60;6.82;;;;;;;;;;2586551;27;20049;-75
2023/12/19 19:20:50;;;;;;;9.60;4.82;;;;;;;;;;9825198;29;20128;-75
2023/12/19 19:25:47;;;;;;;6.25;3.95;;;;;;;;;;9836187;29;20046;-76
2023/12/19 19:51:55;;;;;;;9.95;5.35;;;;;;;;;;9787491;29;20089;-75
2023/12/19 19:56:51;;;;;;;10.90;5.40;;;;;;;;;;9777835;29;20065;-75
2023/12/19 20:35:51;;;;;;;10.73;4.80;;;;;;;;;;8107291;23;20053;-70
2023/12/19 20:41:53;;;;;;;9.65;4.80;;;;;;;;;;9909865;29;20518;-71
2023/12/19 20:47:07;;;;;;;14.23;4.43;;;;;;;;;;9805647;29;20487;-71
2023/12/19 20:52:41;;;;;;;;;;;;;;;;;;;;;
2023/12/19 20:58:11;;;;;;;13.50;4.60;;;;;;;;;;9865502;29;20066;-71
2023/12/19 21:03:07;;;;;;;10.30;4.60;;;;;;;;;;9853268;29;20540;-71
2023/12/19 21:08:04;;;;;;;12.07;5.03;;;;;;;;;;9830010;29;20050;-71
2023/12/19 21:13:00;;;;;;;18.15;5.25;;;;;;;;;;9824022;29;20073;-71
2023/12/19 21:17:59;;;;;;;13.18;4.43;;;;;;;;;;9823428;29;20058;-71
2023/12/19 21:22:56;;;;;;;11.75;5.80;;;;;;;;;;9830338;29;20150;-70
2023/12/19 21:27:55;;;;;;;15.13;5.07;;;;;;;;;;9816416;29;20053;-70
2023/12/19 21:33:04;;;;;;;9.65;4.60;;;;;;;;;;9886485;23;20524;-70
2023/12/19 21:38:32;;;;;;;9.60;5.20;;;;;;;;;;9892917;29;20057;-70
2023/12/19 21:43:29;;;;;;;13.40;4.53;;;;;;;;;;9886868;29;20050;-70
2023/12/19 21:48:25;;;;;;;10.27;4.65;;;;;;;;;;9876292;29;20054;-70
2023/12/19 21:53:22;;;;;;;10.13;5.10;;;;;;;;;;9870572;29;20152;-70
2023/12/19 21:58:18;;;;;;;10.48;5.00;;;;;;;;;;9878349;29;20399;-71
2023/12/19 22:03:14;;;;;;;12.65;5.40;;;;;;;;;;9866912;29;20061;-70
2023/12/19 22:08:10;;;;;;;10.68;5.18;;;;;;;;;;9886773;29;20111;-71
2023/12/19 22:13:07;;;;;;;11.00;5.15;;;;;;;;;;9857740;29;20479;-71
2023/12/19 22:18:03;;;;;;;13.68;5.20;;;;;;;;;;9884596;29;20851;-70
2023/12/19 22:23:00;;;;;;;15.32;5.95;;;;;;;;;;9885384;29;20415;-70
2023/12/19 22:27:56;;;;;;;15.07;5.43;;;;;;;;;;9882778;29;20058;-69
2023/12/19 22:32:53;;;;;;;20.73;5.90;;;;;;;;;;9882184;29;20056;-69
2023/12/19 22:37:49;;;;;;;15.60;6.40;;;;;;;;;;9877624;29;20117;-69
2023/12/19 22:42:45;;;;;;;17.35;5.72;;;;;;;;;;9884854;29;20102;-70
2023/12/19 22:47:42;;;;;;;7.75;5.10;;;;;;;;;;9874778;29;20049;-70
2023/12/19 22:52:40;;;;;;;18.70;6.00;;;;;;;;;;9878882;29;20069;-70
2023/12/19 22:57:36;;;;;;;11.15;5.25;;;;;;;;;;9883829;29;20050;-70
2023/12/19 23:02:32;;;;;;;14.57;5.43;;;;;;;;;;9876784;29;20545;-70
2023/12/19 23:07:29;;;;;;;9.15;4.85;;;;;;;;;;9882029;29;20106;-70
2023/12/19 23:12:26;;;;;;;14.10;5.45;;;;;;;;;;9879372;29;20057;-69
2023/12/19 23:17:22;;;;;;;15.02;5.88;;;;;;;;;;9871479;29;20057;-69
2023/12/19 23:22:19;;;;;;;15.40;5.53;;;;;;;;;;9877630;29;20145;-69
2023/12/19 23:27:16;;;;;;;10.55;5.20;;;;;;;;;;9874150;29;20081;-70
2023/12/19 23:32:12;;;;;;;16.23;5.68;;;;;;;;;;9875014;29;20093;-71
2023/12/19 23:37:09;;;;;;;20.88;5.60;;;;;;;;;;9879737;29;20057;-69
2023/12/19 23:42:05;;;;;;;17.70;5.50;;;;;;;;;;9859613;29;20476;-71
2023/12/19 23:47:02;;;;;;;12.50;5.40;;;;;;;;;;9889439;29;20060;-70
2023/12/19 23:51:58;;;;;;;18.15;7.03;;;;;;;;;;9881835;29;20466;-70
2023/12/19 23:56:54;;;;;;;12.95;5.43;;;;;;;;;;9880240;29;20087;-70
